createdAt,value
2023-04-22T00:01:28.929Z,13.74
2023-04-22T00:03:58.803Z,13.75
2023-04-22T00:06:28.040Z,13.71
2023-04-22T00:08:56.393Z,13.70
2023-04-22T00:11:24.655Z,13.69
2023-04-22T00:13:52.565Z,13.67
2023-04-22T00:16:21.892Z,13.66
2023-04-22T00:18:50.877Z,13.65
2023-04-22T00:21:20.206Z,13.64
2023-04-22T00:23:48.073Z,13.63
2023-04-22T00:26:16.074Z,13.61
2023-04-22T00:28:44.084Z,13.60
2023-04-22T00:31:14.462Z,13.58
2023-04-22T00:33:43.486Z,13.58
2023-04-22T00:36:12.517Z,13.55
2023-04-22T00:38:43.190Z,13.54
2023-04-22T00:41:11.392Z,13.51
2023-04-22T00:43:39.428Z,13.49
2023-04-22T00:46:10.145Z,13.46
2023-04-22T00:48:38.619Z,13.44
2023-04-22T00:51:07.527Z,13.42
2023-04-22T00:53:35.938Z,13.40
2023-04-22T00:56:06.217Z,13.36
2023-04-22T00:58:34.246Z,13.37
2023-04-22T01:01:02.689Z,13.35
2023-04-22T01:03:33.983Z,13.30
2023-04-22T01:06:02.198Z,13.29
2023-04-22T01:08:30.769Z,13.23
2023-04-22T01:10:59.001Z,13.19
2023-04-22T01:13:30.474Z,13.17
2023-04-22T01:16:00.104Z,13.17
2023-04-22T01:18:31.381Z,13.12
2023-04-22T01:20:59.274Z,13.11
2023-04-22T01:23:28.979Z,13.13
2023-04-22T01:25:57.186Z,13.10
2023-04-22T01:28:25.787Z,13.06
2023-04-22T01:30:53.913Z,13.08
2023-04-22T01:33:22.187Z,13.06
2023-04-22T01:35:50.103Z,13.03
2023-04-22T01:38:18.296Z,13.03
2023-04-22T01:40:54.214Z,13.02
2023-04-22T01:43:22.485Z,12.97
2023-04-22T01:45:51.044Z,12.97
2023-04-22T01:48:21.103Z,12.97
2023-04-22T01:50:49.364Z,12.96
2023-04-22T01:53:17.375Z,12.96
2023-04-22T01:55:46.440Z,12.96
2023-04-22T01:58:18.042Z,12.94
2023-04-22T02:00:47.633Z,12.94
2023-04-22T02:03:16.010Z,12.95
2023-04-22T02:05:44.129Z,12.93
2023-04-22T02:08:12.331Z,12.94
2023-04-22T02:10:40.621Z,12.93
2023-04-22T02:13:08.710Z,12.93
2023-04-22T02:15:40.447Z,12.94
2023-04-22T02:18:10.202Z,12.93
2023-04-22T02:20:38.424Z,12.94
2023-04-22T02:23:07.476Z,12.93
2023-04-22T02:25:35.678Z,12.92
2023-04-22T02:28:03.584Z,12.90
2023-04-22T02:30:32.297Z,12.89
2023-04-22T02:33:01.769Z,12.87
2023-04-22T02:35:29.719Z,12.87
2023-04-22T02:37:58.012Z,12.86
2023-04-22T02:40:30.998Z,12.81
2023-04-22T02:42:59.118Z,12.82
2023-04-22T02:45:29.482Z,12.81
2023-04-22T02:47:57.807Z,12.78
2023-04-22T02:50:27.326Z,12.79
2023-04-22T02:52:55.925Z,12.75
2023-04-22T02:55:24.546Z,12.73
2023-04-22T02:57:55.036Z,12.73
2023-04-22T03:00:24.488Z,12.72
2023-04-22T03:02:53.489Z,12.68
2023-04-22T03:05:27.868Z,12.68
2023-04-22T03:07:56.327Z,12.71
2023-04-22T03:10:24.406Z,12.69
2023-04-22T03:12:53.359Z,12.67
2023-04-22T03:15:22.123Z,12.65
2023-04-22T03:17:50.416Z,12.61
2023-04-22T03:20:21.286Z,12.60
2023-04-22T03:22:50.632Z,12.59
2023-04-22T03:25:18.588Z,12.54
2023-04-22T03:27:53.355Z,12.45
2023-04-22T03:30:21.512Z,12.40
2023-04-22T03:32:50.544Z,12.38
2023-04-22T03:35:24.506Z,12.33
2023-04-22T03:37:55.198Z,12.35
2023-04-22T03:40:30.844Z,12.34
2023-04-22T03:43:03.658Z,12.36
2023-04-22T03:45:31.695Z,12.36
2023-04-22T03:48:23.566Z,12.34
2023-04-22T03:50:53.958Z,12.27
2023-04-22T03:53:23.885Z,12.27
2023-04-22T03:55:53.384Z,12.28
2023-04-22T03:58:21.392Z,12.25
2023-04-22T04:00:51.080Z,12.27
2023-04-22T04:03:20.795Z,12.28
2023-04-22T04:05:52.457Z,12.30
2023-04-22T04:08:23.662Z,12.28
2023-04-22T04:10:51.500Z,12.28
2023-04-22T04:13:19.623Z,12.26
2023-04-22T04:16:07.339Z,12.25
2023-04-22T04:18:36.618Z,12.24
2023-04-22T04:21:07.401Z,12.22
2023-04-22T04:23:41.333Z,12.20
2023-04-22T04:26:11.248Z,12.19
2023-04-22T04:28:43.010Z,12.16
2023-04-22T04:31:11.303Z,12.13
2023-04-22T04:33:39.242Z,12.11
2023-04-22T04:36:08.768Z,12.07
2023-04-22T04:38:37.004Z,12.05
2023-04-22T04:41:08.676Z,12.04
2023-04-22T04:43:37.629Z,12.05
2023-04-22T04:46:18.106Z,12.01
2023-04-22T04:48:48.616Z,11.98
2023-04-22T04:51:18.237Z,11.97
2023-04-22T04:53:55.016Z,11.93
2023-04-22T04:56:25.113Z,11.92
2023-04-22T04:58:53.385Z,11.94
2023-04-22T05:01:25.450Z,11.98
2023-04-22T05:03:55.123Z,11.99
2023-04-22T05:06:23.821Z,12.03
2023-04-22T05:08:58.219Z,12.03
2023-04-22T05:11:31.050Z,12.06
2023-04-22T05:14:06.750Z,12.10
2023-04-22T05:16:40.127Z,12.14
2023-04-22T05:19:10.379Z,12.16
2023-04-22T05:21:38.622Z,12.18
2023-04-22T05:24:08.196Z,12.18
2023-04-22T05:26:39.802Z,12.18
2023-04-22T05:29:15.447Z,12.21
2023-04-22T05:31:47.021Z,12.22
2023-04-22T05:34:15.466Z,12.28
2023-04-22T05:36:44.971Z,12.28
2023-04-22T05:39:15.691Z,12.31
2023-04-22T05:41:46.935Z,12.35
2023-04-22T05:44:18.804Z,12.36
2023-04-22T05:46:47.874Z,12.36
2023-04-22T05:49:17.040Z,12.37
2023-04-22T05:52:06.336Z,12.28
2023-04-22T05:54:51.845Z,12.24
2023-04-22T05:57:25.213Z,12.27
2023-04-22T05:59:54.551Z,12.31
2023-04-22T06:02:25.144Z,12.33
2023-04-22T06:04:54.209Z,12.37
2023-04-22T06:07:27.046Z,12.40
2023-04-22T06:10:04.656Z,12.48
2023-04-22T06:12:39.811Z,12.56
2023-04-22T06:15:09.451Z,12.64
2023-04-22T06:17:38.230Z,12.75
2023-04-22T06:20:08.235Z,12.86
2023-04-22T06:22:36.986Z,12.94
2023-04-22T06:25:06.689Z,13.02
2023-04-22T06:27:41.575Z,13.08
2023-04-22T06:30:12.744Z,13.18
2023-04-22T06:32:41.875Z,13.22
2023-04-22T06:35:10.771Z,13.27
2023-04-22T06:37:50.707Z,13.34
2023-04-22T06:40:19.529Z,13.42
2023-04-22T06:43:21.739Z,13.48
2023-04-22T06:46:21.778Z,13.59
2023-04-22T06:48:49.802Z,13.65
2023-04-22T06:51:41.805Z,13.74
2023-04-22T06:54:12.176Z,13.84
2023-04-22T06:56:40.386Z,13.94
2023-04-22T06:59:10.406Z,14.09
2023-04-22T07:01:39.121Z,14.24
2023-04-22T07:04:09.407Z,14.40
2023-04-22T07:06:40.363Z,14.52
2023-04-22T07:09:11.134Z,14.63
2023-04-22T07:11:40.224Z,14.73
2023-04-22T07:14:17.379Z,14.82
2023-04-22T07:16:45.739Z,14.89
2023-04-22T07:19:15.547Z,14.98
2023-04-22T07:21:48.202Z,15.06
2023-04-22T07:24:17.209Z,15.10
2023-04-22T07:26:45.889Z,15.16
2023-04-22T07:29:20.662Z,15.19
2023-04-22T07:31:49.644Z,15.22
2023-04-22T07:34:19.222Z,15.27
2023-04-22T07:36:51.185Z,15.28
2023-04-22T07:39:21.536Z,15.30
2023-04-22T07:41:53.282Z,15.35
2023-04-22T07:44:23.178Z,15.39
2023-04-22T07:46:51.664Z,15.42
2023-04-22T07:49:24.356Z,15.41
2023-04-22T07:51:52.656Z,15.40
2023-04-22T07:54:23.088Z,15.37
2023-04-22T07:56:54.290Z,15.44
2023-04-22T07:59:25.648Z,15.49
2023-04-22T08:01:54.147Z,15.54
2023-04-22T08:04:24.304Z,15.62
2023-04-22T08:06:56.159Z,15.64
2023-04-22T08:09:27.128Z,15.73
2023-04-22T08:12:03.004Z,15.82
2023-04-22T08:14:33.157Z,15.92
2023-04-22T08:17:03.312Z,16.10
2023-04-22T08:19:31.598Z,16.21
2023-04-22T08:22:02.182Z,16.35
2023-04-22T08:24:30.802Z,16.49
2023-04-22T08:27:02.154Z,16.71
2023-04-22T08:29:36.260Z,16.73
2023-04-22T08:32:04.640Z,16.87
2023-04-22T08:34:36.653Z,17.04
2023-04-22T08:37:10.191Z,17.24
2023-04-22T08:39:38.870Z,17.44
2023-04-22T08:42:07.630Z,17.57
2023-04-22T08:44:41.296Z,17.80
2023-04-22T08:47:12.755Z,17.97
2023-04-22T08:49:42.153Z,18.07
2023-04-22T08:52:15.321Z,18.16
2023-04-22T08:54:44.784Z,18.09
2023-04-22T08:57:13.587Z,18.11
2023-04-22T08:59:43.371Z,18.11
2023-04-22T09:02:18.741Z,18.25
2023-04-22T09:04:49.789Z,18.34
2023-04-22T09:07:23.535Z,18.34
2023-04-22T09:09:55.674Z,18.43
2023-04-22T09:12:24.256Z,18.59
2023-04-22T09:14:55.257Z,18.70
2023-04-22T09:17:32.387Z,18.77
2023-04-22T09:20:05.679Z,18.95
2023-04-22T09:22:40.106Z,19.12
2023-04-22T09:25:18.331Z,19.20
2023-04-22T09:27:52.685Z,19.37
2023-04-22T09:30:26.152Z,19.56
2023-04-22T09:32:56.046Z,19.63
2023-04-22T09:35:30.158Z,19.73
2023-04-22T09:38:08.012Z,19.85
2023-04-22T09:40:46.266Z,19.99
2023-04-22T09:43:18.744Z,20.03
2023-04-22T09:45:49.902Z,19.93
2023-04-22T09:48:20.033Z,20.09
2023-04-22T09:50:52.082Z,19.98
2023-04-22T09:53:25.604Z,20.16
2023-04-22T09:55:56.058Z,20.19
2023-04-22T09:58:29.474Z,20.17
2023-04-22T10:01:00.231Z,20.26
2023-04-22T10:03:30.016Z,20.55
2023-04-22T10:06:00.773Z,20.68
2023-04-22T10:08:28.987Z,20.82
2023-04-22T10:10:57.422Z,20.80
2023-04-22T10:13:29.195Z,20.88
2023-04-22T10:16:02.076Z,20.82
2023-04-22T10:18:33.190Z,21.01
2023-04-22T10:21:01.784Z,21.00
2023-04-22T10:23:36.251Z,21.06
2023-04-22T10:26:08.966Z,21.24
2023-04-22T10:28:37.603Z,21.18
2023-04-22T10:31:21.978Z,21.23
2023-04-22T10:33:50.522Z,21.41
2023-04-22T10:36:21.255Z,21.39
2023-04-22T10:39:18.140Z,21.49
2023-04-22T10:41:53.464Z,21.44
2023-04-22T10:44:24.487Z,21.60
2023-04-22T10:47:03.049Z,21.71
2023-04-22T10:49:32.605Z,21.75
2023-04-22T10:52:01.612Z,21.89
2023-04-22T10:54:59.893Z,21.87
2023-04-22T10:57:43.113Z,22.18
2023-04-22T11:00:45.816Z,22.00
2023-04-22T11:03:28.334Z,22.29
2023-04-22T11:06:16.224Z,22.43
2023-04-22T11:08:47.806Z,22.62
2023-04-22T11:11:18.983Z,22.97
2023-04-22T11:13:50.610Z,23.01
2023-04-22T11:16:23.338Z,22.81
2023-04-22T11:18:59.901Z,22.62
2023-04-22T11:21:28.796Z,22.66
2023-04-22T11:24:04.987Z,22.71
2023-04-22T11:26:36.260Z,22.76
2023-04-22T11:29:05.141Z,22.84
2023-04-22T11:31:33.227Z,23.03
2023-04-22T11:34:03.094Z,23.27
2023-04-22T11:36:32.757Z,23.40
2023-04-22T11:39:01.310Z,23.54
2023-04-22T11:41:32.526Z,23.74
2023-04-22T11:44:01.370Z,23.71
2023-04-22T11:46:39.582Z,23.84
2023-04-22T11:49:17.721Z,24.14
2023-04-22T11:51:57.822Z,24.42
2023-04-22T11:54:33.993Z,24.57
2023-04-22T11:57:08.288Z,24.62
2023-04-22T11:59:38.827Z,24.38
2023-04-22T12:02:10.317Z,24.48
2023-04-22T12:04:42.071Z,24.21
2023-04-22T12:07:10.546Z,23.88
2023-04-22T12:09:40.260Z,23.97
2023-04-22T12:12:08.702Z,24.03
2023-04-22T12:14:37.536Z,24.11
2023-04-22T12:17:07.494Z,24.15
2023-04-22T12:19:35.889Z,24.16
2023-04-22T12:22:05.461Z,24.14
2023-04-22T12:24:33.742Z,24.10
2023-04-22T12:27:03.649Z,24.25
2023-04-22T12:29:34.901Z,24.33
2023-04-22T12:32:07.034Z,24.44
2023-04-22T12:34:36.088Z,24.64
2023-04-22T12:37:07.311Z,24.83
2023-04-22T12:39:35.561Z,25.01
2023-04-22T12:42:05.777Z,25.09
2023-04-22T12:44:34.237Z,24.89
2023-04-22T12:47:06.064Z,24.93
2023-04-22T12:49:33.912Z,24.95
2023-04-22T12:52:02.086Z,24.77
2023-04-22T12:54:31.495Z,24.79
2023-04-22T12:57:04.793Z,24.70
2023-04-22T12:59:33.479Z,24.88
2023-04-22T13:02:02.464Z,25.24
2023-04-22T13:04:33.191Z,25.28
2023-04-22T13:07:01.863Z,25.43
2023-04-22T13:09:31.557Z,25.07
2023-04-22T13:12:00.975Z,24.91
2023-04-22T13:14:39.139Z,24.97
2023-04-22T13:17:09.520Z,24.79
2023-04-22T13:19:37.873Z,24.40
2023-04-22T13:22:07.206Z,24.11
2023-04-22T13:24:36.594Z,23.86
2023-04-22T13:27:07.193Z,23.70
2023-04-22T13:29:38.034Z,23.63
2023-04-22T13:32:06.845Z,23.63
2023-04-22T13:34:35.638Z,23.67
2023-04-22T13:37:03.868Z,23.56
2023-04-22T13:39:33.941Z,23.42
2023-04-22T13:42:07.878Z,23.18
2023-04-22T13:44:39.564Z,23.07
2023-04-22T13:47:11.718Z,22.86
2023-04-22T13:49:41.358Z,22.59
2023-04-22T13:52:11.189Z,22.60
2023-04-22T13:54:39.485Z,22.49
2023-04-22T13:57:09.832Z,22.20
2023-04-22T13:59:38.342Z,22.18
2023-04-22T14:02:06.722Z,22.16
2023-04-22T14:04:34.858Z,22.09
2023-04-22T14:07:06.960Z,22.08
2023-04-22T14:09:36.592Z,22.07
2023-04-22T14:12:04.860Z,22.02
2023-04-22T14:14:35.137Z,21.91
2023-04-22T14:17:04.539Z,21.72
2023-04-22T14:19:33.614Z,21.63
2023-04-22T14:22:04.347Z,21.54
2023-04-22T14:24:33.629Z,21.52
2023-04-22T14:27:02.561Z,21.46
2023-04-22T14:29:35.011Z,21.49
2023-04-22T14:32:03.666Z,21.44
2023-04-22T14:34:33.176Z,21.41
2023-04-22T14:37:03.336Z,21.41
2023-04-22T14:39:33.234Z,21.29
2023-04-22T14:42:03.574Z,21.26
2023-04-22T14:44:36.200Z,21.22
2023-04-22T14:47:06.174Z,21.17
2023-04-22T14:49:35.276Z,21.16
2023-04-22T14:52:03.499Z,21.20
2023-04-22T14:54:35.950Z,21.17
2023-04-22T14:57:04.319Z,21.18
2023-04-22T14:59:35.096Z,21.19
2023-04-22T15:02:03.735Z,21.12
2023-04-22T15:04:32.272Z,21.16
2023-04-22T15:07:06.915Z,20.97
2023-04-22T15:09:36.278Z,20.70
2023-04-22T15:12:05.317Z,20.48
2023-04-22T15:14:37.916Z,20.43
2023-04-22T15:17:06.999Z,20.36
2023-04-22T15:19:35.081Z,20.18
2023-04-22T15:22:03.477Z,20.26
2023-04-22T15:24:33.747Z,20.19
2023-04-22T15:27:04.651Z,20.10
2023-04-22T15:29:32.689Z,20.07
2023-04-22T15:32:09.262Z,20.18
2023-04-22T15:34:38.608Z,20.23
2023-04-22T15:37:12.382Z,20.34
2023-04-22T15:39:44.325Z,20.28
2023-04-22T15:42:12.780Z,20.38
2023-04-22T15:44:42.497Z,20.58
2023-04-22T15:47:12.298Z,20.87
2023-04-22T15:49:40.755Z,20.88
2023-04-22T15:52:10.914Z,20.88
2023-04-22T15:54:39.040Z,20.71
2023-04-22T15:57:11.876Z,20.66
2023-04-22T15:59:40.388Z,20.65
2023-04-22T16:02:10.874Z,20.73
2023-04-22T16:04:43.375Z,20.56
2023-04-22T16:07:12.112Z,20.52
2023-04-22T16:09:40.790Z,20.53
2023-04-22T16:12:11.570Z,20.50
2023-04-22T16:14:42.146Z,20.26
2023-04-22T16:17:10.080Z,20.31
2023-04-22T16:19:38.184Z,20.08
2023-04-22T16:22:08.763Z,20.02
2023-04-22T16:24:37.288Z,19.96
2023-04-22T16:27:05.327Z,19.82
2023-04-22T16:29:33.894Z,19.70
2023-04-22T16:32:02.553Z,19.79
2023-04-22T16:34:30.776Z,19.72
2023-04-22T16:37:04.208Z,19.71
2023-04-22T16:39:33.809Z,19.76
2023-04-22T16:42:05.034Z,19.79
2023-04-22T16:44:32.986Z,19.76
2023-04-22T16:47:01.315Z,19.62
2023-04-22T16:49:29.299Z,19.64
2023-04-22T16:51:57.599Z,19.72
2023-04-22T16:54:35.636Z,19.75
2023-04-22T16:57:04.942Z,19.68
2023-04-22T16:59:33.614Z,19.74
2023-04-22T17:02:02.472Z,19.79
2023-04-22T17:04:31.162Z,19.85
2023-04-22T17:07:00.925Z,19.91
2023-04-22T17:09:29.278Z,19.92
2023-04-22T17:11:59.368Z,20.03
2023-04-22T17:14:27.402Z,20.01
2023-04-22T17:17:00.352Z,19.95
2023-04-22T17:19:28.787Z,19.98
2023-04-22T17:22:01.647Z,20.02
2023-04-22T17:24:33.087Z,19.87
2023-04-22T17:27:04.678Z,19.84
2023-04-22T17:29:33.232Z,19.84
2023-04-22T17:32:01.683Z,19.83
2023-04-22T17:34:31.564Z,19.85
2023-04-22T17:37:03.354Z,19.71
2023-04-22T17:39:34.681Z,19.61
2023-04-22T17:42:05.131Z,19.36
2023-04-22T17:44:36.289Z,19.39
2023-04-22T17:47:07.868Z,19.31
2023-04-22T17:49:40.285Z,19.31
2023-04-22T17:52:10.438Z,19.28
2023-04-22T17:54:43.663Z,19.24
2023-04-22T17:57:13.750Z,19.11
2023-04-22T17:59:42.422Z,19.12
2023-04-22T18:02:15.273Z,19.04
2023-04-22T18:04:44.443Z,19.00
2023-04-22T18:07:13.161Z,18.90
2023-04-22T18:09:44.468Z,18.89
2023-04-22T18:12:14.023Z,18.83
2023-04-22T18:14:45.551Z,18.82
2023-04-22T18:17:13.879Z,18.77
2023-04-22T18:19:44.890Z,18.76
2023-04-22T18:22:14.840Z,18.75
2023-04-22T18:24:44.169Z,18.70
2023-04-22T18:27:16.309Z,18.66
2023-04-22T18:29:47.901Z,18.63
2023-04-22T18:32:16.842Z,18.62
2023-04-22T18:34:47.910Z,18.62
2023-04-22T18:37:16.286Z,18.57
2023-04-22T18:39:45.461Z,18.55
2023-04-22T18:42:18.969Z,18.56
2023-04-22T18:44:49.965Z,18.51
2023-04-22T18:47:18.598Z,18.52
2023-04-22T18:49:49.665Z,18.55
2023-04-22T18:52:20.907Z,18.54
2023-04-22T18:54:48.950Z,18.49
2023-04-22T18:57:19.993Z,18.48
2023-04-22T18:59:48.925Z,18.50
2023-04-22T19:02:17.336Z,18.39
2023-04-22T19:04:45.869Z,18.33
2023-04-22T19:07:14.661Z,18.45
2023-04-22T19:09:43.337Z,18.33
2023-04-22T19:12:14.670Z,18.29
2023-04-22T19:14:44.953Z,18.19
2023-04-22T19:17:16.220Z,18.13
2023-04-22T19:19:46.519Z,18.10
2023-04-22T19:22:17.648Z,18.11
2023-04-22T19:24:45.585Z,18.02
2023-04-22T19:27:14.210Z,18.02
2023-04-22T19:29:51.283Z,18.00
2023-04-22T19:32:25.184Z,17.86
2023-04-22T19:34:53.348Z,18.00
2023-04-22T19:37:21.962Z,17.92
2023-04-22T19:39:51.142Z,17.94
2023-04-22T19:42:20.975Z,17.96
2023-04-22T19:44:51.190Z,17.98
2023-04-22T19:47:22.465Z,17.84
2023-04-22T19:49:51.600Z,17.77
2023-04-22T19:52:24.736Z,17.73
2023-04-22T19:55:00.963Z,17.72
2023-04-22T19:57:31.379Z,17.68
2023-04-22T20:00:01.184Z,17.60
2023-04-22T20:02:30.749Z,17.71
2023-04-22T20:05:00.945Z,17.64
2023-04-22T20:07:32.256Z,17.54
2023-04-22T20:10:02.047Z,17.52
2023-04-22T20:12:34.295Z,17.49
2023-04-22T20:15:05.743Z,17.53
2023-04-22T20:17:39.094Z,17.47
2023-04-22T20:20:13.099Z,17.51
2023-04-22T20:22:42.373Z,17.62
2023-04-22T20:25:13.931Z,17.42
2023-04-22T20:27:42.671Z,17.39
2023-04-22T20:30:14.599Z,17.46
2023-04-22T20:32:44.232Z,17.38
2023-04-22T20:35:16.665Z,17.40
2023-04-22T20:37:46.060Z,17.25
2023-04-22T20:40:18.858Z,17.14
2023-04-22T20:42:47.675Z,17.15
2023-04-22T20:45:18.190Z,17.15
2023-04-22T20:47:48.320Z,17.16
2023-04-22T20:50:17.311Z,17.12
2023-04-22T20:52:47.666Z,17.05
2023-04-22T20:55:16.915Z,17.11
2023-04-22T20:57:47.761Z,17.04
2023-04-22T21:00:20.588Z,16.97
2023-04-22T21:02:49.537Z,17.00
2023-04-22T21:05:21.439Z,17.01
2023-04-22T21:07:53.250Z,17.08
2023-04-22T21:10:22.474Z,16.92
2023-04-22T21:12:51.488Z,16.93
2023-04-22T21:15:22.916Z,16.81
2023-04-22T21:17:56.407Z,16.77
2023-04-22T21:20:27.099Z,16.77
2023-04-22T21:22:55.750Z,16.64
2023-04-22T21:25:24.417Z,16.58
2023-04-22T21:27:52.970Z,16.55
2023-04-22T21:30:23.444Z,16.62
2023-04-22T21:32:51.397Z,16.59
2023-04-22T21:35:19.341Z,16.46
2023-04-22T21:37:48.020Z,16.41
2023-04-22T21:40:15.843Z,16.47
2023-04-22T21:42:43.793Z,16.42
2023-04-22T21:45:12.513Z,16.44
2023-04-22T21:47:42.017Z,16.40
2023-04-22T21:50:10.558Z,16.32
2023-04-22T21:52:38.856Z,16.13
2023-04-22T21:55:07.376Z,16.08
2023-04-22T21:57:35.970Z,16.04
2023-04-22T22:00:05.985Z,16.07
2023-04-22T22:02:35.137Z,16.05
2023-04-22T22:05:04.973Z,15.98
2023-04-22T22:07:34.535Z,15.99
2023-04-22T22:10:03.443Z,15.79
2023-04-22T22:12:32.136Z,15.77
2023-04-22T22:15:01.634Z,15.77
2023-04-22T22:17:32.606Z,15.71
2023-04-22T22:20:04.093Z,15.75
2023-04-22T22:22:34.219Z,15.76
2023-04-22T22:25:02.248Z,15.70
2023-04-22T22:27:30.476Z,15.57
2023-04-22T22:29:58.880Z,15.63
2023-04-22T22:32:28.418Z,15.60
2023-04-22T22:34:59.332Z,15.58
2023-04-22T22:37:27.258Z,15.53
2023-04-22T22:39:56.500Z,15.53
2023-04-22T22:42:24.481Z,15.52
2023-04-22T22:44:52.651Z,15.45
2023-04-22T22:47:20.633Z,15.41
2023-04-22T22:49:48.649Z,15.42
2023-04-22T22:52:16.785Z,15.42
2023-04-22T22:54:44.744Z,15.46
2023-04-22T22:57:13.992Z,15.44
2023-04-22T22:59:43.394Z,15.43
2023-04-22T23:02:13.750Z,15.30
2023-04-22T23:04:42.961Z,15.28
2023-04-22T23:07:11.409Z,15.32
2023-04-22T23:09:39.811Z,15.27
2023-04-22T23:12:08.240Z,15.31
2023-04-22T23:14:37.592Z,15.18
2023-04-22T23:17:07.803Z,15.17
2023-04-22T23:19:36.658Z,15.19
2023-04-22T23:22:08.243Z,15.23
2023-04-22T23:24:36.716Z,15.31
2023-04-22T23:27:05.516Z,15.06
2023-04-22T23:29:34.243Z,14.99
2023-04-22T23:32:05.373Z,14.88
2023-04-22T23:34:35.077Z,14.89
2023-04-22T23:37:06.519Z,14.98
2023-04-22T23:39:34.742Z,14.98
2023-04-22T23:42:03.500Z,14.88
2023-04-22T23:44:32.494Z,14.79
2023-04-22T23:47:04.728Z,14.84
2023-04-22T23:49:32.782Z,14.73
2023-04-22T23:52:00.826Z,14.80
2023-04-22T23:54:30.179Z,14.85
2023-04-22T23:56:59.394Z,14.85
2023-04-22T23:59:27.840Z,14.76
